Flight Track Log - Related Links

Times and Time Zones

All times are in EDT time to prevent confusion due to time zone crossing. See the CDG4974 flight status page for this flight to view local times or setup timezone preferences in your user account.

Time Position Orientation Groundspeed Altitude Reporting Facility
EDT Latitude Longitude Course Direction KTS MPH feet Rate Location/Type
Wed 02:02:00 AM 29.6992 120.2060 200° South  Level Estimated
Wed 02:03:00 AM 29.6236 120.1740 200° South  Level Estimated
Wed 02:04:00 AM 29.5480 120.1420 200° South  Level Estimated
Wed 02:05:00 AM 29.4724 120.1101 200° South  Level Estimated
Wed 02:06:00 AM 29.3967 120.0782 200° South  Level Estimated
Wed 02:07:00 AM 29.3211 120.0463 200° South  Level Estimated
Wed 02:08:00 AM 29.2454 120.0145 200° South  Level Estimated
Wed 02:09:00 AM 29.1698 119.9828 200° South  Level Estimated
Wed 02:10:00 AM 29.0941 119.9510 200° South  Level Estimated
Wed 02:11:00 AM 29.0184 119.9194 200° South  Level Estimated
Wed 02:12:00 AM 28.9428 119.8878 200° South  Level Estimated
Wed 02:13:00 AM 28.8671 119.8562 200° South  Level Estimated
Wed 02:14:00 AM 28.7914 119.8247 200° South  Level Estimated
Wed 02:15:00 AM 28.7157 119.7932 200° South  Level Estimated
Wed 02:16:00 AM 28.6399 119.7618 200° South  Level Estimated
Wed 02:17:00 AM 28.5642 119.7304 200° South  Level Estimated
Wed 02:18:00 AM 28.4885 119.6991 200° South  Level Estimated
Wed 02:19:00 AM 28.4128 119.6678 200° South  Level Estimated
Wed 02:20:00 AM 28.3370 119.6365 200° South  Level Estimated
Wed 02:21:00 AM 28.2613 119.6053 200° South  Level Estimated
Wed 02:22:00 AM 28.1855 119.5741 200° South  Level Estimated
Wed 02:23:00 AM 28.1098 119.5430 200° South  Level Estimated
Wed 02:24:00 AM 28.0340 119.5119 200° South  Level Estimated
Wed 02:25:00 AM 27.9582 119.4809 200° South  Level Estimated
Wed 02:26:00 AM 27.8824 119.4499 200° South  Level Estimated
Wed 02:27:00 AM 27.8066 119.4190 200° South  Level Estimated
Wed 02:28:00 AM 27.7309 119.3881 200° South  Level Estimated
Wed 02:29:00 AM 27.6550 119.3572 200° South  Level Estimated
Wed 02:30:00 AM 27.5792 119.3264 200° South  Level Estimated
Wed 02:31:00 AM 27.5034 119.2956 200° South  Level Estimated
Wed 02:32:00 AM 27.4276 119.2649 200° South  Level Estimated
Wed 02:33:00 AM 27.3518 119.2342 200° South  Level Estimated
Wed 02:34:00 AM 27.2759 119.2036 200° South  Level Estimated
Wed 02:35:00 AM 27.2001 119.1730 200° South  Level Estimated
Wed 02:36:00 AM 27.1242 119.1424 200° South  Level Estimated
Wed 02:37:00 AM 27.0484 119.1119 200° South  Level Estimated
Wed 02:38:00 AM 26.9725 119.0814 200° South  Level Estimated
Wed 02:39:00 AM 26.8966 119.0510 200° South  Level Estimated
Wed 02:40:00 AM 26.8208 119.0206 200° South  Level Estimated
Wed 02:41:00 AM 26.7449 118.9902 200° South  Level Estimated
Wed 02:42:00 AM 26.6690 118.9599 200° South  Level Estimated
Wed 02:43:00 AM 26.5931 118.9296 200° South  Level Estimated
Wed 02:44:00 AM 26.5172 118.8994 200° South  Level Estimated
Wed 02:45:00 AM 26.4413 118.8692 200° South  Level Estimated
Wed 02:46:00 AM 26.3654 118.8391 200° South  Level Estimated
Wed 02:47:00 AM 26.2894 118.8089 200° South  Level Estimated
Wed 02:48:00 AM 26.2135 118.7789 200° South  Level Estimated
Wed 02:49:00 AM 26.1376 118.7488 200° South  Level Estimated
Wed 02:50:00 AM 26.0616 118.7188 200° South  Level Estimated
Wed 02:51:00 AM 25.9857 118.6889 200° South  Level Estimated
Wed 02:52:00 AM 25.9097 118.6590 200° South  Level Estimated
Wed 02:53:00 AM 25.8338 118.6291 199° South  Level Estimated
Wed 02:54:00 AM 25.7578 118.5992 199° South  Level Estimated
Wed 02:55:00 AM 25.6818 118.5694 199° South  Level Estimated
Wed 02:56:00 AM 25.6059 118.5396 199° South  Level Estimated
Wed 02:57:00 AM 25.5299 118.5099 199° South  Level Estimated
Wed 02:58:00 AM 25.4539 118.4802 199° South  Level Estimated
Wed 02:59:00 AM 25.3779 118.4506 199° South  Level Estimated
Wed 03:00:00 AM 25.3019 118.4210 199° South  Level Estimated
Wed 03:01:00 AM 25.2259 118.3914 199° South  Level Estimated
Wed 03:02:00 AM 25.1499 118.3618 199° South  Level Estimated
Wed 03:03:00 AM 25.0739 118.3323 199° South  Level Estimated
Wed 03:04:00 AM 24.9978 118.3028 199° South  Level Estimated
Wed 03:05:00 AM 24.9218 118.2734 199° South  Level Estimated
Wed 03:06:00 AM 24.8458 118.2440 199° South  Level Estimated
Wed 03:07:00 AM 24.7697 118.2147 199° South  Level Estimated
Wed 03:08:00 AM 24.6937 118.1853 199° South  Level Estimated
Wed 03:09:00 AM 24.6176 118.1560 199° South  Level Estimated
Wed 03:10:00 AM 24.5440 118.1277 199° South  Level Estimated
Wed 03:11:00 AM 24.5440 118.1277 North  Level Estimated
Wed 03:12:00 AM 24.5440 118.1277 North  Level Estimated
Wed 03:13:00 AM 24.5440 118.1277 North  Level Estimated
Wed 03:14:00 AM 24.5440 118.1277 North  Level Estimated
Wed 03:15:00 AM 24.5440 118.1277 North  Level Estimated
Wed 03:16:00 AM 24.5440 118.1277 North  Level Estimated
Wed 03:17:00 AM 24.5440 118.1277 North  Level Estimated
Wed 03:18:00 AM 24.5440 118.1277 North  Level Estimated
Wed 03:19:00 AM 24.5440 118.1277 North  Level Estimated
Wed 03:20:00 AM 24.5440 118.1277 North  Level Estimated
Wed 03:21:00 AM 24.5440 118.1277 North  Level Estimated
Wed 03:22:00 AM 24.5440 118.1277 North  Level Estimated
Wed 03:23:00 AM 24.5440 118.1277 North  Level Estimated
Wed 03:24:00 AM 24.5440 118.1277 North  Level Estimated
Wed 03:25:00 AM 24.5440 118.1277 North  Level Estimated
Wed 03:26:00 AM 24.5440 118.1277 North  Level Estimated

Login

Don't have an account? Register now (free) for customized features, flight alerts, and more!